Time;durP1;ratioP1;P1;durP2;ratioP2;P2;SDS_P1;SDS_P2;PMS_P1;PMS_P2;Temp;Humidity;BMP_temperature;BMP_pressure;BME280_temperature;BME280_humidity;BME280_pressure;Samples;Min_cycle;Max_cycle;Signal;HPM_P1;HPM_P2
2022/04/10 00:01:01;;;;;;;5.22;2.38;;;;;;;16.34;73.89;99025.06;5072912;28;20278;-78
2022/04/10 00:03:28;;;;;;;6.70;2.67;;;;;;;16.36;74.85;99020.69;5065407;28;20699;-77
2022/04/10 00:05:55;;;;;;;4.88;1.92;;;;;;;16.08;77.03;98998.72;5074976;28;20218;-77
2022/04/10 00:08:22;;;;;;;4.00;1.58;;;;;;;16.23;77.95;99018.41;5073338;28;20202;-77
2022/04/10 00:10:50;;;;;;;3.63;2.15;;;;;;;16.12;80.68;99012.59;5073027;28;20256;-78
2022/04/10 00:13:17;;;;;;;4.28;2.30;;;;;;;16.16;80.50;99004.59;5073380;28;20202;-78
2022/04/10 00:15:44;;;;;;;5.47;2.70;;;;;;;16.15;82.10;99009.88;5073270;28;20234;-78
2022/04/10 00:18:10;;;;;;;6.70;2.35;;;;;;;16.04;83.57;99001.44;5073265;28;20199;-79
2022/04/10 00:20:37;;;;;;;8.68;2.33;;;;;;;15.89;85.24;99002.66;5072747;28;20206;-77
2022/04/10 00:23:05;;;;;;;2.22;1.98;;;;;;;15.81;87.11;98992.38;5072914;28;20231;-78
2022/04/10 00:25:32;;;;;;;4.53;2.20;;;;;;;15.87;87.25;98984.38;5073054;28;20640;-79
2022/04/10 00:28:00;;;;;;;3.15;2.33;;;;;;;15.77;89.13;98989.88;5073110;28;20227;-78
2022/04/10 00:30:27;;;;;;;4.80;1.92;;;;;;;15.83;88.76;98985.38;5073121;28;20582;-78
2022/04/10 00:32:54;;;;;;;4.20;2.17;;;;;;;15.26;89.37;98909.19;5072161;28;20225;-78
2022/04/10 00:35:21;;;;;;;3.65;2.17;;;;;;;15.49;90.83;98978.34;5073195;28;20199;-79
2022/04/10 00:37:47;;;;;;;5.78;2.63;;;;;;;15.69;90.24;98990.06;5072944;28;20678;-78
2022/04/10 00:40:14;;;;;;;4.00;2.35;;;;;;;15.75;90.25;98986.44;5073441;28;20202;-78
2022/04/10 00:42:43;;;;;;;6.60;2.13;;;;;;;15.63;90.82;98961.44;5072823;28;20221;-77
2022/04/10 00:45:11;;;;;;;2.28;1.90;;;;;;;15.75;90.85;98978.59;5073418;28;20264;-79
2022/04/10 00:47:38;;;;;;;2.88;2.30;;;;;;;15.74;91.30;98996.03;5073018;28;20194;-78
2022/04/10 00:50:07;;;;;;;8.73;2.67;;;;;;;15.54;92.80;98979.97;5073046;28;20205;-79
2022/04/10 00:52:35;;;;;;;7.35;2.90;;;;;;;15.64;93.88;98991.06;5072423;28;20202;-78
2022/04/10 00:55:02;;;;;;;5.55;2.45;;;;;;;15.74;93.43;98992.56;5072110;28;20233;-79
2022/04/10 00:57:29;;;;;;;4.97;1.85;;;;;;;15.69;93.84;98987.47;5054062;28;20199;-79
2022/04/10 00:59:56;;;;;;;7.85;2.33;;;;;;;15.50;95.13;99003.56;5072400;28;20659;-79
2022/04/10 01:02:24;;;;;;;2.67;2.20;;;;;;;15.47;97.53;99001.88;5036753;28;20646;-79
2022/04/10 01:04:51;;;;;;;5.82;2.60;;;;;;;15.32;99.40;99005.66;5071920;28;20272;-80
2022/04/10 01:07:19;;;;;;;2.95;2.10;;;;;;;15.08;100.00;98981.81;5072367;28;20562;-79
2022/04/10 01:09:47;;;;;;;2.20;2.00;;;;;;;15.25;100.00;99003.22;5072211;28;20562;-78
2022/04/10 01:12:14;;;;;;;4.55;2.33;;;;;;;15.28;100.00;99004.00;5036495;28;20676;-79
2022/04/10 01:14:42;;;;;;;2.88;2.42;;;;;;;15.25;100.00;99011.06;5071219;28;20207;-78
2022/04/10 01:17:09;;;;;;;4.28;2.20;;;;;;;14.92;100.00;98978.66;5071787;28;20306;-79
2022/04/10 01:19:38;;;;;;;3.15;2.05;;;;;;;14.98;100.00;98973.34;5071888;28;20199;-78
2022/04/10 01:22:06;;;;;;;4.38;3.00;;;;;;;14.96;100.00;98993.38;5071545;28;20191;-79
2022/04/10 01:24:36;;;;;;;4.85;2.00;;;;;;;15.10;100.00;98988.72;5021381;28;20191;-78
2022/04/10 01:27:04;;;;;;;11.98;2.55;;;;;;;15.08;100.00;98985.31;5071527;28;20669;-77
2022/04/10 01:29:30;;;;;;;3.17;1.80;;;;;;;15.27;100.00;98990.97;5072004;28;20219;-79
2022/04/10 01:31:57;;;;;;;3.80;2.22;;;;;;;15.14;100.00;98966.03;5071323;28;20198;-78
2022/04/10 01:34:25;;;;;;;2.90;2.45;;;;;;;15.21;100.00;98991.97;5036737;28;20650;-77
2022/04/10 01:36:51;;;;;;;3.17;2.15;;;;;;;15.42;97.55;98969.75;5071706;28;20210;-77
2022/04/10 01:39:18;;;;;;;2.13;1.98;;;;;;;15.48;99.73;98968.78;5071319;28;20666;-81
2022/04/10 01:41:47;;;;;;;5.47;2.53;;;;;;;15.27;100.00;98989.22;5071552;28;20272;-78
2022/04/10 01:44:14;;;;;;;2.00;1.90;;;;;;;15.08;100.00;98998.34;5036375;28;20302;-78
2022/04/10 01:46:41;;;;;;;2.72;2.47;;;;;;;15.04;100.00;98994.09;5036268;28;20202;-75
2022/04/10 01:49:08;;;;;;;3.22;2.40;;;;;;;15.12;100.00;99010.47;5036567;28;20202;-78
2022/04/10 01:51:35;;;;;;;6.65;2.50;;;;;;;15.07;100.00;99020.13;5071313;28;20662;-78
2022/04/10 01:54:02;;;;;;;11.00;2.55;;;;;;;14.95;100.00;99007.31;5071721;28;20206;-78
2022/04/10 01:56:29;;;;;;;3.55;2.70;;;;;;;14.89;100.00;98983.94;5071229;28;20198;-78
2022/04/10 01:58:57;;;;;;;3.55;2.53;;;;;;;14.95;100.00;98993.41;5071115;28;20198;-78
2022/04/10 02:01:24;;;;;;;3.42;2.35;;;;;;;15.11;100.00;98995.69;5071131;28;20199;-79
2022/04/10 02:03:51;;;;;;;3.00;2.67;;;;;;;15.00;100.00;99002.88;5071135;28;20718;-79
2022/04/10 02:06:19;;;;;;;7.97;2.42;;;;;;;15.11;100.00;99010.47;5071161;28;20286;-78
2022/04/10 02:08:46;;;;;;;5.97;2.67;;;;;;;14.78;100.00;99010.25;5071042;28;20230;-78
2022/04/10 02:11:14;;;;;;;2.97;2.65;;;;;;;14.61;100.00;98987.97;5070785;28;20630;-77
2022/04/10 02:13:42;;;;;;;4.20;2.38;;;;;;;14.59;100.00;98988.00;5070759;28;20209;-79
2022/04/10 02:16:12;;;;;;;3.95;2.67;;;;;;;14.47;100.00;98982.16;5071024;28;20234;-79
2022/04/10 02:18:39;;;;;;;2.45;2.25;;;;;;;14.44;100.00;98998.72;5070675;28;20202;-78
2022/04/10 02:21:06;;;;;;;3.28;2.90;;;;;;;14.40;100.00;98989.25;5070878;28;20632;-79
2022/04/10 02:23:33;;;;;;;3.55;2.50;;;;;;;14.36;100.00;98983.22;5070852;28;20226;-78
2022/04/10 02:26:00;;;;;;;3.08;2.30;;;;;;;14.37;100.00;98989.31;5070379;28;20252;-78
2022/04/10 02:28:26;;;;;;;2.80;2.60;;;;;;;14.39;100.00;98984.91;5071152;28;20202;-79
2022/04/10 02:30:53;;;;;;;3.55;2.60;;;;;;;14.17;100.00;98986.97;5071021;28;20203;-79
2022/04/10 02:33:21;;;;;;;4.60;2.88;;;;;;;14.00;100.00;98949.06;5033756;28;20210;-78
2022/04/10 02:35:48;;;;;;;4.95;2.83;;;;;;;14.02;100.00;98974.22;5070563;28;20195;-78
2022/04/10 02:38:16;;;;;;;5.13;2.70;;;;;;;14.02;100.00;98992.44;5070111;28;20199;-79
2022/04/10 02:40:43;;;;;;;3.53;2.50;;;;;;;13.91;100.00;99004.81;5070099;28;20592;-78
2022/04/10 02:43:13;;;;;;;3.50;3.20;;;;;;;13.76;100.00;98995.50;5070736;28;20251;-78
2022/04/10 02:45:40;;;;;;;5.80;2.75;;;;;;;13.95;100.00;98996.03;5052093;28;20202;-77
2022/04/10 02:48:08;;;;;;;3.47;2.67;;;;;;;13.81;100.00;99018.84;5071491;28;20195;-78
2022/04/10 02:50:36;;;;;;;6.95;2.33;;;;;;;13.48;100.00;98972.47;5070658;28;20195;-80
2022/04/10 02:53:03;;;;;;;4.38;2.45;;;;;;;13.53;100.00;99013.19;5070710;28;20210;-78
2022/04/10 02:55:30;;;;;;;3.53;2.60;;;;;;;13.51;100.00;99006.28;5070661;28;20567;-78
2022/04/10 02:57:56;;;;;;;6.57;2.40;;;;;;;13.44;100.00;99002.91;5069898;28;20198;-78
2022/04/10 03:00:23;;;;;;;3.40;2.78;;;;;;;13.29;100.00;98997.91;5070046;28;20207;-78
2022/04/10 03:02:50;;;;;;;3.45;2.97;;;;;;;13.27;100.00;98997.06;5018908;28;20233;-78
2022/04/10 03:05:17;;;;;;;3.17;2.88;;;;;;;13.38;100.00;98963.91;5018500;28;20206;-77
2022/04/10 03:07:45;;;;;;;7.10;3.85;;;;;;;13.46;100.00;98966.41;5070586;28;20205;-78
2022/04/10 03:10:12;;;;;;;3.25;2.92;;;;;;;13.48;100.00;98956.84;5070916;28;20191;-79
2022/04/10 03:12:39;;;;;;;5.07;2.88;;;;;;;13.29;100.00;98935.44;5070205;28;20198;-79
2022/04/10 03:15:07;;;;;;;6.38;2.92;;;;;;;13.36;100.00;98958.75;5070393;28;20698;-79
2022/04/10 03:17:34;;;;;;;3.22;2.65;;;;;;;13.51;100.00;98957.66;5070356;28;20199;-79
2022/04/10 03:20:00;;;;;;;3.95;3.00;;;;;;;13.28;100.00;98939.78;5070456;28;20582;-79
2022/04/10 03:22:27;;;;;;;3.15;2.70;;;;;;;13.69;100.00;98946.09;5069781;28;20674;-78
2022/04/10 03:24:55;;;;;;;3.22;3.03;;;;;;;13.76;100.00;98942.53;5070860;28;20199;-81
2022/04/10 03:27:22;;;;;;;5.65;3.58;;;;;;;13.70;100.00;98947.81;5018288;28;20191;-77
2022/04/10 03:29:49;;;;;;;3.63;2.88;;;;;;;13.75;100.00;98959.91;5069544;28;20190;-79
2022/04/10 03:32:16;;;;;;;4.95;3.10;;;;;;;13.78;100.00;98956.38;5070293;28;20264;-79
2022/04/10 03:34:42;;;;;;;5.88;3.20;;;;;;;13.88;100.00;98953.59;5018868;28;20210;-77
2022/04/10 03:37:09;;;;;;;3.70;2.63;;;;;;;13.87;100.00;98951.03;5019152;28;20209;-78
2022/04/10 03:39:36;;;;;;;6.05;2.60;;;;;;;13.83;100.00;98959.78;5054695;28;20865;-78
2022/04/10 03:42:05;;;;;;;2.80;2.47;;;;;;;13.95;100.00;98972.59;5073637;28;20210;-78
2022/04/10 03:44:31;;;;;;;8.32;2.53;;;;;;;13.81;100.00;98978.03;5073841;28;20230;-77
2022/04/10 03:46:58;;;;;;;3.33;3.03;;;;;;;13.41;100.00;98985.56;5074187;28;20195;-77
2022/04/10 03:49:25;;;;;;;5.85;2.50;;;;;;;13.37;100.00;99001.28;5073602;28;20210;-77
2022/04/10 03:51:52;;;;;;;3.03;2.83;;;;;;;13.08;100.00;98992.94;5072965;28;20195;-78
2022/04/10 03:54:18;;;;;;;3.65;3.08;;;;;;;13.24;100.00;99010.97;5074383;28;20210;-77
2022/04/10 03:56:45;;;;;;;6.60;3.20;;;;;;;13.03;100.00;99016.41;5073542;28;20194;-78
2022/04/10 03:59:13;;;;;;;3.20;2.65;;;;;;;12.99;100.00;99024.25;5073359;28;20191;-79
2022/04/10 04:01:40;;;;;;;4.68;3.20;;;;;;;12.98;100.00;99017.34;5073493;28;20213;-78
2022/04/10 04:04:07;;;;;;;5.70;3.50;;;;;;;12.94;100.00;99013.94;5073541;28;20234;-79
2022/04/10 04:06:34;;;;;;;3.17;2.90;;;;;;;12.68;100.00;99003.81;5073333;28;20203;-78
2022/04/10 04:09:00;;;;;;;5.00;3.15;;;;;;;13.00;100.00;99011.25;5073409;28;20209;-79
2022/04/10 04:11:27;;;;;;;2.92;2.75;;;;;;;12.77;100.00;99014.09;5073451;28;20195;-78
2022/04/10 04:13:55;;;;;;;4.00;3.60;;;;;;;12.68;100.00;99023.75;5073289;28;20197;-79
2022/04/10 04:16:23;;;;;;;4.18;3.88;;;;;;;12.75;100.00;99031.47;5073203;28;20569;-79
2022/04/10 04:18:51;;;;;;;4.60;4.15;;;;;;;12.64;100.00;99028.13;5073027;28;20198;-80
2022/04/10 04:21:17;;;;;;;5.05;3.70;;;;;;;12.94;100.00;99039.94;5073123;28;20214;-80
2022/04/10 04:23:44;;;;;;;8.15;4.47;;;;;;;12.89;100.00;99037.38;5037120;28;20222;-78
2022/04/10 04:26:11;;;;;;;6.45;4.15;;;;;;;12.62;100.00;99008.22;5072481;28;20199;-79
2022/04/10 04:28:38;;;;;;;4.85;4.13;;;;;;;12.74;100.00;99039.28;5071160;28;20207;-77
2022/04/10 04:31:04;;;;;;;4.72;3.42;;;;;;;12.79;100.00;99045.31;5020925;28;20279;-79
2022/04/10 04:33:33;;;;;;;4.88;4.40;;;;;;;12.86;100.00;99045.22;5072097;28;20199;-79
2022/04/10 04:35:59;;;;;;;4.82;4.30;;;;;;;12.68;100.00;99042.81;5072479;28;20203;-79
2022/04/10 04:38:27;;;;;;;4.45;4.10;;;;;;;12.26;100.00;99005.09;5033735;28;20210;-77
2022/04/10 04:40:54;;;;;;;5.30;4.80;;;;;;;12.46;100.00;99063.81;5056258;28;20222;-78
2022/04/10 04:43:21;;;;;;;6.25;4.93;;;;;;;12.56;100.00;99049.88;5072585;28;20229;-80
2022/04/10 04:45:47;;;;;;;6.10;5.50;;;;;;;12.54;100.00;99056.84;5072476;28;20218;-78
2022/04/10 04:48:14;;;;;;;7.43;6.18;;;;;;;12.53;100.00;99058.56;5072116;28;20207;-78
2022/04/10 04:50:44;;;;;;;7.65;6.55;;;;;;;12.60;100.00;99059.38;5072515;28;20252;-77
2022/04/10 04:53:11;;;;;;;8.07;6.63;;;;;;;12.42;100.00;99063.88;5072544;28;20295;-77
2022/04/10 04:55:38;;;;;;;10.35;6.38;;;;;;;12.59;100.00;99060.25;5072608;28;20635;-79
2022/04/10 04:58:05;;;;;;;11.57;7.20;;;;;;;12.55;100.00;99071.56;5072453;28;20584;-78
2022/04/10 05:00:31;;;;;;;7.95;7.15;;;;;;;12.58;100.00;99061.13;5072695;28;20214;-79
2022/04/10 05:02:58;;;;;;;10.05;7.32;;;;;;;12.53;100.00;99068.97;5072243;28;20209;-76
2022/04/10 05:05:25;;;;;;;4.88;4.32;;;;;;;12.45;100.00;99073.34;5072680;28;20276;-78
2022/04/10 05:07:53;;;;;;;10.63;8.30;;;;;;;12.50;100.00;99078.53;5071364;28;20290;-79
2022/04/10 05:10:20;;;;;;;7.85;7.15;;;;;;;12.43;100.00;99086.38;5072455;28;20260;-78
2022/04/10 05:12:47;;;;;;;8.32;6.35;;;;;;;12.26;100.00;99080.47;5020300;28;20210;-79
2022/04/10 05:15:14;;;;;;;7.97;6.65;;;;;;;12.53;100.00;99078.50;5071820;28;20227;-80
2022/04/10 05:17:41;;;;;;;6.82;6.18;;;;;;;12.48;100.00;99085.50;5071287;28;20644;-78
2022/04/10 05:20:08;;;;;;;7.60;6.55;;;;;;;12.29;100.00;99062.25;5072173;28;20190;-79
2022/04/10 05:22:35;;;;;;;9.35;6.90;;;;;;;12.26;100.00;99098.66;5019658;28;20221;-81
2022/04/10 05:25:04;;;;;;;7.63;6.72;;;;;;;12.19;100.00;99096.13;5071796;28;20305;-79
2022/04/10 05:27:31;;;;;;;6.47;5.80;;;;;;;12.28;100.00;99096.03;5052730;28;20210;-78
2022/04/10 05:29:57;;;;;;;5.80;5.15;;;;;;;12.36;100.00;99099.44;5019428;28;20203;-79
2022/04/10 05:32:24;;;;;;;8.30;6.53;;;;;;;12.03;100.00;99129.13;5035508;28;20640;-78
2022/04/10 05:34:51;;;;;;;8.32;7.03;;;;;;;11.89;100.00;99123.16;5071392;28;20198;-82
2022/04/10 05:37:18;;;;;;;6.30;5.25;;;;;;;11.92;100.00;99120.53;5070486;28;20590;-73
2022/04/10 05:39:44;;;;;;;7.32;5.88;;;;;;;11.81;100.00;99122.31;5073961;28;20644;-80
2022/04/10 05:42:12;;;;;;;5.90;5.32;;;;;;;11.84;100.00;99130.13;5070978;28;20203;-77
2022/04/10 05:44:39;;;;;;;5.97;5.47;;;;;;;11.78;100.00;99140.53;5070937;28;20226;-79
2022/04/10 05:47:07;;;;;;;11.80;8.52;;;;;;;11.87;100.00;99141.38;5071728;28;20207;-80
2022/04/10 05:49:33;;;;;;;10.70;6.95;;;;;;;11.71;100.00;99138.81;5071267;28;20210;-79
2022/04/10 05:52:00;;;;;;;8.60;7.68;;;;;;;11.53;100.00;99137.16;5070949;28;20206;-76
2022/04/10 05:54:27;;;;;;;9.02;6.88;;;;;;;11.55;100.00;99161.38;5071634;28;20195;-79
2022/04/10 05:56:55;;;;;;;9.73;8.55;;;;;;;11.49;100.00;99173.50;5070983;28;20202;-79
2022/04/10 05:59:23;;;;;;;12.15;7.65;;;;;;;11.54;100.00;99175.22;5070756;28;20678;-78
2022/04/10 06:01:50;;;;;;;11.70;9.98;;;;;;;11.78;100.00;99202.84;5069220;28;20207;-79
2022/04/10 06:04:18;;;;;;;8.65;6.20;;;;;;;11.81;100.00;99213.22;5071243;28;20226;-79
2022/04/10 06:06:45;;;;;;;16.25;9.40;;;;;;;11.66;100.00;99213.28;5070399;28;20282;-77
2022/04/10 06:09:11;;;;;;;12.55;8.05;;;;;;;11.70;100.00;99209.78;5071012;28;20202;-77
2022/04/10 06:11:38;;;;;;;11.73;9.60;;;;;;;11.78;100.00;99228.81;5070513;28;20211;-78
2022/04/10 06:14:05;;;;;;;11.65;10.18;;;;;;;11.55;100.00;99215.03;5071053;28;20202;-76
2022/04/10 06:16:33;;;;;;;11.52;7.47;;;;;;;11.70;100.00;99225.38;5070494;28;20618;-76
2022/04/10 06:19:00;;;;;;;9.93;8.90;;;;;;;11.55;100.00;99241.84;5018730;28;20244;-75
2022/04/10 06:21:27;;;;;;;23.42;9.30;;;;;;;11.99;100.00;99233.94;5058869;28;20609;-76
2022/04/10 06:23:54;;;;;;;16.55;10.75;;;;;;;11.66;100.00;99239.22;5070749;28;20783;-79
2022/04/10 06:26:20;;;;;;;10.52;8.68;;;;;;;11.51;100.00;99242.72;5019590;28;20260;-75
2022/04/10 06:28:47;;;;;;;12.57;8.50;;;;;;;11.42;100.00;99225.44;5054347;28;20256;-76
2022/04/10 06:31:14;;;;;;;17.92;12.75;;;;;;;11.23;100.00;99226.34;5034456;28;20199;-78
2022/04/10 06:33:42;;;;;;;14.32;9.45;;;;;;;11.51;100.00;99236.66;5070696;28;20256;-76
2022/04/10 06:36:10;;;;;;;14.50;10.95;;;;;;;11.19;100.00;99196.09;5070969;28;20198;-79
2022/04/10 06:38:37;;;;;;;15.32;12.05;;;;;;;11.60;100.00;99250.47;5070005;28;20234;-78
2022/04/10 06:41:04;;;;;;;11.85;8.23;;;;;;;11.31;100.00;99234.09;5069720;28;20487;-78
2022/04/10 06:43:30;;;;;;;14.60;9.32;;;;;;;11.18;100.00;99217.69;5070309;28;20667;-77
2022/04/10 06:45:57;;;;;;;18.27;11.98;;;;;;;11.42;100.00;99235.81;5070880;28;20687;-76
2022/04/10 06:48:24;;;;;;;18.92;13.20;;;;;;;11.37;100.00;99253.16;5018370;28;20218;-76
2022/04/10 06:50:52;;;;;;;13.73;9.75;;;;;;;10.83;100.00;99186.63;5070784;28;20199;-75
2022/04/10 06:53:19;;;;;;;12.93;9.23;;;;;;;11.15;100.00;99269.59;5070609;28;20596;-75
2022/04/10 06:55:46;;;;;;;17.85;13.00;;;;;;;11.23;100.00;99259.22;5071037;28;20207;-77
2022/04/10 06:58:12;;;;;;;12.23;9.40;;;;;;;10.98;100.00;99265.28;5070351;28;20210;-75
2022/04/10 07:00:41;;;;;;;23.10;14.05;;;;;;;11.15;100.00;99264.41;5035926;28;20230;-74
2022/04/10 07:03:07;;;;;;;30.10;16.98;;;;;;;11.02;100.00;99270.47;5071103;28;20655;-74
2022/04/10 07:05:34;;;;;;;23.92;15.80;;;;;;;10.93;100.00;99267.84;5070516;28;20231;-75
2022/04/10 07:08:02;;;;;;;19.85;12.55;;;;;;;10.78;100.00;99265.25;5068896;28;20206;-78
2022/04/10 07:10:29;;;;;;;19.10;11.13;;;;;;;10.77;100.00;99258.34;5022941;28;20232;-74
2022/04/10 07:12:56;;;;;;;33.83;17.27;;;;;;;10.92;100.00;99263.53;5000834;28;20192;-78
2022/04/10 07:15:23;;;;;;;121.03;56.03;;;;;;;10.89;100.00;99274.78;5054648;28;20231;-75
2022/04/10 07:17:50;;;;;;;48.80;27.42;;;;;;;10.79;100.00;99262.66;5054554;28;20218;-76
2022/04/10 07:20:17;;;;;;;18.88;11.88;;;;;;;10.47;100.00;99284.22;5073001;28;20576;-77
2022/04/10 07:25:29;;;;;;;26.27;15.38;;;;;;;10.04;100.00;99296.13;5073859;28;20398;-77
2022/04/10 07:27:55;;;;;;;32.78;18.63;;;;;;;9.86;100.00;99309.84;5073873;28;20211;-76
2022/04/10 07:30:22;;;;;;;22.52;12.85;;;;;;;9.71;100.00;99308.03;5074188;28;20215;-77
2022/04/10 07:32:53;;;;;;;27.60;16.27;;;;;;;9.75;100.00;99309.78;5074381;28;20191;-77
2022/04/10 07:35:21;;;;;;;31.70;17.42;;;;;;;10.11;100.00;99341.91;5073312;28;20209;-77
2022/04/10 07:37:48;;;;;;;32.28;17.45;;;;;;;10.16;100.00;99341.09;5073336;28;20207;-76
2022/04/10 07:40:16;;;;;;;25.80;16.90;;;;;;;10.26;100.00;99357.56;5037727;28;20606;-77
2022/04/10 07:42:44;;;;;;;24.85;16.63;;;;;;;10.03;100.00;99367.75;5073170;28;20206;-79
2022/04/10 07:47:25;;;;;;;31.52;19.10;;;;;;;9.92;100.00;99334.03;5073139;28;20619;-80
2022/04/10 07:47:58;;;;;;;36.33;18.00;;;;;;;10.93;100.00;99354.31;5073242;28;20202;-78
2022/04/10 07:50:25;;;;;;;28.05;14.68;;;;;;;10.47;100.00;99352.47;5073225;28;20203;-78
2022/04/10 07:52:52;;;;;;;34.38;18.83;;;;;;;10.33;100.00;99355.00;5073048;28;20198;-77
2022/04/10 07:55:19;;;;;;;26.50;16.55;;;;;;;10.26;100.00;99337.69;5072924;28;20210;-76
2022/04/10 07:57:47;;;;;;;32.40;18.60;;;;;;;10.18;100.00;99330.75;5073414;28;20214;-76
2022/04/10 08:00:15;;;;;;;32.97;17.77;;;;;;;10.01;100.00;99325.47;5054222;28;20698;-76
2022/04/10 08:02:46;;;;;;;29.73;15.85;;;;;;;9.95;100.00;99302.13;5072812;28;20192;-75
2022/04/10 08:05:13;;;;;;;30.80;16.35;;;;;;;10.27;100.00;99325.63;5072925;28;20299;-76
2022/04/10 08:07:40;;;;;;;29.80;16.75;;;;;;;10.16;100.00;99320.38;5072756;28;20225;-77
2022/04/10 08:10:08;;;;;;;20.42;13.02;;;;;;;10.18;100.00;99328.16;5072605;28;20690;-75
2022/04/10 08:12:35;;;;;;;22.42;14.00;;;;;;;9.62;100.00;99287.28;5072919;28;20659;-76
2022/04/10 08:15:03;;;;;;;28.08;16.60;;;;;;;9.60;100.00;99317.44;5072406;28;20226;-77
2022/04/10 08:17:30;;;;;;;26.88;15.25;;;;;;;9.52;100.00;99321.72;5020790;28;20198;-76
2022/04/10 08:19:57;;;;;;;32.90;14.82;;;;;;;9.59;100.00;99309.69;5072682;28;20207;-76
2022/04/10 08:22:25;;;;;;;31.13;17.23;;;;;;;9.57;100.00;99288.97;5072426;28;20207;-76
2022/04/10 08:24:52;;;;;;;17.30;9.35;;;;;;;9.49;100.00;99289.78;5072097;28;20254;-77
2022/04/10 08:27:19;;;;;;;22.42;13.60;;;;;;;9.34;100.00;99294.00;5072381;28;20210;-74
2022/04/10 08:29:46;;;;;;;28.40;15.85;;;;;;;9.50;100.00;99284.59;5072890;28;20199;-77
2022/04/10 08:32:14;;;;;;;27.00;14.38;;;;;;;9.61;100.00;99295.88;5072502;28;20198;-77
2022/04/10 08:34:41;;;;;;;24.92;14.00;;;;;;;9.63;100.00;99285.56;5072070;28;20221;-77
2022/04/10 08:37:07;;;;;;;25.13;14.88;;;;;;;9.61;100.00;99290.72;5072232;28;20656;-76
2022/04/10 08:39:35;;;;;;;21.75;11.82;;;;;;;9.46;100.00;99298.38;5072149;28;20718;-77
2022/04/10 08:42:05;;;;;;;31.30;15.20;;;;;;;9.55;100.00;99300.16;5072147;28;20682;-78
2022/04/10 08:44:33;;;;;;;24.02;14.65;;;;;;;9.57;100.00;99288.09;5071802;28;20690;-78
2022/04/10 08:47:00;;;;;;;19.50;12.80;;;;;;;9.60;100.00;99298.44;5071912;28;20215;-77
2022/04/10 08:49:30;;;;;;;22.38;14.05;;;;;;;9.50;100.00;99284.59;5071827;28;20195;-77
2022/04/10 08:51:59;;;;;;;18.45;9.43;;;;;;;9.67;100.00;99297.63;5072240;28;20293;-76
2022/04/10 08:54:28;;;;;;;22.02;11.68;;;;;;;9.52;100.00;99297.56;5071931;28;20198;-76
2022/04/10 08:56:57;;;;;;;24.10;13.82;;;;;;;9.49;100.00;99302.72;5071797;28;20574;-76
2022/04/10 08:59:24;;;;;;;26.92;12.73;;;;;;;9.40;100.00;99309.56;5071727;28;20195;-75
2022/04/10 09:01:53;;;;;;;23.50;13.98;;;;;;;9.07;100.00;99267.91;5071769;28;20206;-76
2022/04/10 09:04:20;;;;;;;22.58;12.85;;;;;;;9.44;100.00;99290.63;5071598;28;20249;-75
2022/04/10 09:06:59;;;;;;;22.70;12.00;;;;;;;9.44;100.00;99310.44;5071931;28;20270;-77
2022/04/10 09:09:26;;;;;;;11.63;7.68;;;;;;;9.40;100.00;99335.44;5071409;28;20731;-76
2022/04/10 09:11:54;;;;;;;12.80;6.93;;;;;;;9.36;100.00;99333.66;5071786;28;20203;-77
2022/04/10 09:14:22;;;;;;;13.90;9.50;;;;;;;9.39;100.00;99328.50;5071298;28;20203;-78
2022/04/10 09:17:10;;;;;;;19.10;9.15;;;;;;;9.44;100.00;99332.00;5071399;28;20657;-78
2022/04/10 09:19:38;;;;;;;11.02;7.25;;;;;;;9.07;100.00;99301.53;5036189;28;20198;-78
2022/04/10 09:22:27;;;;;;;14.00;9.45;;;;;;;8.94;100.00;99297.13;5071456;28;20206;-76
2022/04/10 09:25:11;;;;;;;8.70;6.65;;;;;;;9.15;100.00;99320.56;5071223;28;20230;-76
2022/04/10 09:27:40;;;;;;;7.70;5.97;;;;;;;9.15;100.00;99320.56;5071341;28;20255;-76
2022/04/10 09:30:09;;;;;;;9.68;7.50;;;;;;;9.11;100.00;99310.16;5071343;28;20202;-76
2022/04/10 09:32:43;;;;;;;13.15;7.07;;;;;;;9.38;100.00;99325.94;5071239;28;20194;-76
2022/04/10 09:35:12;;;;;;;6.28;5.30;;;;;;;8.96;100.00;99305.72;5070345;28;20202;-76
2022/04/10 09:37:48;;;;;;;8.85;5.63;;;;;;;9.09;100.00;99312.75;5071032;28;20225;-76
2022/04/10 09:40:29;;;;;;;11.13;7.38;;;;;;;9.35;100.00;99311.22;5071216;28;20701;-78
2022/04/10 09:43:03;;;;;;;13.05;7.28;;;;;;;9.15;100.00;99317.09;5070939;28;20670;-77
2022/04/10 09:45:35;;;;;;;9.80;7.00;;;;;;;9.24;100.00;99312.88;5070758;28;20593;-77
2022/04/10 09:48:21;;;;;;;7.53;5.40;;;;;;;9.41;100.00;99310.44;5070727;28;20260;-76
2022/04/10 09:50:51;;;;;;;9.82;6.47;;;;;;;9.00;100.00;99266.13;5071106;28;20666;-77
2022/04/10 09:53:19;;;;;;;7.40;5.47;;;;;;;9.36;100.00;99309.50;5070951;28;20195;-78
2022/04/10 09:55:53;;;;;;;14.25;7.80;;;;;;;9.44;100.00;99315.63;5070759;28;20202;-76
2022/04/10 09:58:20;;;;;;;7.38;5.00;;;;;;;9.22;100.00;99322.34;5070550;28;20201;-77
2022/04/10 10:00:49;;;;;;;8.77;6.55;;;;;;;9.10;100.00;99316.19;5070724;28;20218;-76
2022/04/10 10:03:16;;;;;;;5.72;4.70;;;;;;;9.03;100.00;99338.53;5070613;28;20202;-76
2022/04/10 10:05:44;;;;;;;8.25;5.63;;;;;;;8.98;100.00;99329.91;5052114;28;20226;-77
2022/04/10 10:08:11;;;;;;;6.03;4.53;;;;;;;8.99;100.00;99336.78;5070323;28;20195;-76
2022/04/10 10:10:40;;;;;;;4.63;3.35;;;;;;;8.68;100.00;99307.19;5070563;28;20549;-76
2022/04/10 10:13:08;;;;;;;4.50;3.70;;;;;;;8.85;100.00;99340.94;5019014;28;20237;-77
2022/04/10 10:15:36;;;;;;;4.47;3.05;;;;;;;8.81;100.00;99346.97;5070400;28;20549;-76
2022/04/10 10:18:04;;;;;;;2.50;2.30;;;;;;;8.55;100.00;99346.69;5070596;28;20195;-77
2022/04/10 10:20:31;;;;;;;3.30;3.03;;;;;;;8.73;100.00;99338.28;5070312;28;20199;-77
2022/04/10 10:23:00;;;;;;;9.07;5.15;;;;;;;8.59;100.00;99332.09;5070477;28;20213;-78
2022/04/10 10:25:31;;;;;;;3.80;3.47;;;;;;;8.91;100.00;99341.03;5070512;28;20226;-77
2022/04/10 10:28:33;;;;;;;4.47;3.22;;;;;;;8.81;100.00;99332.31;5070735;28;20202;-77
2022/04/10 10:31:20;;;;;;;4.38;2.60;;;;;;;8.79;100.00;99339.19;5070469;28;20289;-77
2022/04/10 10:33:53;;;;;;;3.97;3.50;;;;;;;9.01;100.00;99334.22;5070699;28;20272;-76
2022/04/10 10:36:24;;;;;;;3.55;3.05;;;;;;;9.01;100.00;99334.22;5070354;28;20199;-77
2022/04/10 10:38:53;;;;;;;3.97;3.22;;;;;;;9.06;100.00;99333.41;5070328;28;20207;-77
2022/04/10 10:41:37;;;;;;;2.80;2.60;;;;;;;8.89;100.00;99337.56;5070392;28;20226;-77
2022/04/10 10:44:51;;;;;;;7.03;4.47;;;;;;;8.94;100.00;99338.47;5070154;28;20695;-76
2022/04/10 10:47:23;;;;;;;2.00;1.90;;;;;;;8.91;100.00;99343.63;4954066;28;20213;-75
2022/04/10 10:49:52;;;;;;;4.35;2.35;;;;;;;8.90;100.00;99345.34;4956364;28;20637;-77
2022/04/10 10:52:19;;;;;;;2.92;2.50;;;;;;;8.73;100.00;99341.72;4924474;29;20829;-76
2022/04/10 10:54:51;;;;;;;3.40;3.10;;;;;;;8.83;100.00;99324.56;4924668;29;20206;-76
2022/04/10 10:57:30;;;;;;;3.10;2.72;;;;;;;8.71;100.00;99339.94;4956252;28;20202;-77
2022/04/10 11:00:11;;;;;;;3.90;3.60;;;;;;;8.64;100.00;99325.22;4956178;28;20203;-77
2022/04/10 11:02:40;;;;;;;3.17;3.03;;;;;;;8.77;100.00;99340.03;4942739;28;20199;-77
2022/04/10 11:05:08;;;;;;;2.15;2.05;;;;;;;8.84;100.00;99339.25;4956201;28;20207;-76
2022/04/10 11:07:39;;;;;;;3.28;2.97;;;;;;;8.53;100.00;99294.13;4964925;28;20208;-78
2022/04/10 11:10:09;;;;;;;1.40;1.30;;;;;;;8.82;100.00;99328.00;4963257;28;20213;-80
2022/04/10 11:12:38;;;;;;;2.55;2.45;;;;;;;8.80;100.00;99329.72;4961989;28;20207;-76
2022/04/10 11:15:17;;;;;;;2.47;2.38;;;;;;;8.60;100.00;99305.38;4924584;29;20293;-79
2022/04/10 11:17:45;;;;;;;2.00;1.90;;;;;;;8.64;100.00;99323.53;4937500;29;20766;-77
2022/04/10 11:20:14;;;;;;;2.55;2.35;;;;;;;8.63;100.00;99331.28;4937628;29;20324;-79
2022/04/10 11:22:47;;;;;;;2.08;1.98;;;;;;;8.69;100.00;99324.44;4963963;28;20716;-76
2022/04/10 11:25:13;;;;;;;2.80;2.50;;;;;;;8.80;100.00;99327.13;5049096;28;20199;-77
2022/04/10 11:27:45;;;;;;;4.72;3.40;;;;;;;8.31;100.00;99241.38;5061754;28;20203;-75
2022/04/10 11:30:13;;;;;;;3.05;2.75;;;;;;;8.78;100.00;99344.31;5038595;28;20214;-74
2022/04/10 11:32:50;;;;;;;2.90;2.80;;;;;;;8.79;100.00;99344.34;5076365;28;20206;-75